Weather at Labis Airport

Public forecast

Using degrees Celsius for public forecast. Weather courtesy of forecast.io.

Closest aviation weather report (METAR) to Labis Airport

Closest report is Malacca International Airport, 47.4 nm (87.7 km) W.

2024/06/19 06:00 (retrieved 24 minutes ago)

WMKM 190600Z 21006KT 140V270 9999 FEW017CB SCT020 31/25 Q1008

Closest aviation forecast (TAF) to Labis Airport

Closest forecast is Kluang Airport, 26.1 nm (48.4 km) SE.

2024/06/19 06:00 (retrieved 24 minutes ago)

TAF WMAP 190500Z 1906/2006 VRB03KT 9000 FEW018 TEMPO 1906/1910 03006KT 4000 TSRA FEW017CB